Time,TemperatureF,DewpointF,PressureIn,WindDirection,WindDirectionDegrees,WindSpeedMPH,WindSpeedGustMPH,Humidity,HourlyPrecipIn,Conditions,Clouds,dailyrainin,SolarRadiationWatts/m^2,SoftwareType,DateUTC
2013-05-07 00:00:00,52.2,32.0,29.66,SW,227,3.0,3.0,46,0.00,,,0.00,0,Wunderground v.1.15,2013-05-07 06:00:00,
2013-05-07 00:10:00,52.2,32.0,29.65,SW,235,3.0,3.0,46,0.00,,,0.00,0,Wunderground v.1.15,2013-05-07 06:10:00,
2013-05-07 00:15:00,52.2,32.0,29.65,WSW,251,4.0,4.0,46,0.00,,,0.00,0,Wunderground v.1.15,2013-05-07 06:15:00,
2013-05-07 00:25:00,52.1,32.5,29.65,WSW,251,3.0,7.0,47,0.00,,,0.00,0,Wunderground v.1.15,2013-05-07 06:25:00,
2013-05-07 00:30:00,51.9,32.3,29.65,West,275,4.0,6.0,47,0.00,,,0.00,0,Wunderground v.1.15,2013-05-07 06:30:00,
2013-05-07 00:40:00,51.5,31.9,29.65,West,271,4.0,6.0,47,0.00,,,0.00,0,Wunderground v.1.15,2013-05-07 06:40:00,
2013-05-07 00:50:00,51.5,31.9,29.65,WSW,241,4.0,4.0,47,0.00,,,0.00,0,Wunderground v.1.15,2013-05-07 06:50:00,
2013-05-07 00:55:00,51.5,31.9,29.65,SW,228,3.0,4.0,47,0.00,,,0.00,0,Wunderground v.1.15,2013-05-07 06:55:00,
2013-05-07 01:00:00,51.5,32.4,29.65,WSW,242,2.0,3.0,48,0.00,,,0.00,0,Wunderground v.1.15,2013-05-07 07:00:00,
2013-05-07 01:05:00,51.4,31.8,29.64,West,268,2.0,3.0,47,0.00,,,0.00,0,Wunderground v.1.15,2013-05-07 07:05:00,
2013-05-07 01:10:00,51.5,31.9,29.64,WNW,296,4.0,4.0,47,0.00,,,0.00,0,Wunderground v.1.15,2013-05-07 07:10:00,
2013-05-07 01:15:00,51.5,31.9,29.64,WNW,295,3.0,4.0,47,0.00,,,0.00,0,Wunderground v.1.15,2013-05-07 07:15:00,
2013-05-07 01:20:00,51.0,32.0,29.64,WNW,293,2.0,2.0,48,0.00,,,0.00,0,Wunderground v.1.15,2013-05-07 07:20:00,
2013-05-07 01:30:00,50.3,31.8,29.64,WNW,298,3.0,3.0,49,0.00,,,0.00,0,Wunderground v.1.15,2013-05-07 07:30:00,
2013-05-07 01:35:00,50.0,31.6,29.64,NW,316,3.0,3.0,49,0.00,,,0.00,0,Wunderground v.1.15,2013-05-07 07:35:00,
2013-05-07 01:40:00,49.9,32.0,29.64,WNW,289,2.0,2.0,50,0.00,,,0.00,0,Wunderground v.1.15,2013-05-07 07:40:00,
2013-05-07 01:45:00,50.3,31.8,29.63,SSE,148,2.0,2.0,49,0.00,,,0.00,0,Wunderground v.1.15,2013-05-07 07:45:00,
2013-05-07 01:55:00,50.7,31.7,29.63,SSW,193,4.0,5.0,48,0.00,,,0.00,0,Wunderground v.1.15,2013-05-07 07:55:00,
2013-05-07 02:00:00,50.6,31.6,29.63,South,180,4.0,4.0,48,0.00,,,0.00,0,Wunderground v.1.15,2013-05-07 08:00:00,
2013-05-07 02:05:00,51.5,31.9,29.63,SW,223,4.0,4.0,47,0.00,,,0.00,0,Wunderground v.1.15,2013-05-07 08:05:00,
2013-05-07 02:10:00,51.3,31.7,29.63,WSW,250,3.0,3.0,47,0.00,,,0.00,0,Wunderground v.1.15,2013-05-07 08:10:00,
2013-05-07 02:20:00,51.7,31.6,29.63,SE,137,3.0,3.0,46,0.00,,,0.00,0,Wunderground v.1.15,2013-05-07 08:20:00,
2013-05-07 02:25:00,51.3,32.3,29.63,SSW,211,2.0,3.0,48,0.00,,,0.00,0,Wunderground v.1.15,2013-05-07 08:25:00,
2013-05-07 02:30:00,51.3,31.7,29.62,SSE,166,3.0,3.0,47,0.00,,,0.00,0,Wunderground v.1.15,2013-05-07 08:30:00,
2013-05-07 02:35:00,51.2,31.1,29.62,SE,133,4.0,4.0,46,0.00,,,0.00,0,Wunderground v.1.15,2013-05-07 08:35:00,
2013-05-07 02:40:00,51.2,31.6,29.62,WSW,248,4.0,4.0,47,0.00,,,0.00,0,Wunderground v.1.15,2013-05-07 08:40:00,
2013-05-07 02:50:00,51.5,31.4,29.62,WSW,237,3.0,5.0,46,0.00,,,0.00,0,Wunderground v.1.15,2013-05-07 08:50:00,
2013-05-07 02:55:00,52.0,31.3,29.62,WSW,241,3.0,5.0,45,0.00,,,0.00,0,Wunderground v.1.15,2013-05-07 08:55:00,
2013-05-07 03:05:00,52.1,31.9,29.62,SW,233,3.0,4.0,46,0.00,,,0.00,0,Wunderground v.1.15,2013-05-07 09:05:00,
2013-05-07 03:10:00,51.9,31.7,29.61,WSW,246,2.0,2.0,46,0.00,,,0.00,0,Wunderground v.1.15,2013-05-07 09:10:00,
2013-05-07 03:15:00,51.6,31.5,29.61,WNW,284,2.0,2.0,46,0.00,,,0.00,0,Wunderground v.1.15,2013-05-07 09:15:00,
2013-05-07 03:20:00,51.3,31.7,29.61,WNW,287,2.0,2.0,47,0.00,,,0.00,0,Wunderground v.1.15,2013-05-07 09:20:00,
2013-05-07 03:25:00,51.0,31.5,29.61,West,267,2.0,2.0,47,0.00,,,0.00,0,Wunderground v.1.15,2013-05-07 09:25:00,
2013-05-07 03:35:00,51.1,31.6,29.61,WSW,244,3.0,4.0,47,0.00,,,0.00,0,Wunderground v.1.15,2013-05-07 09:35:00,
2013-05-07 03:45:00,51.4,31.3,29.61,WSW,241,3.0,4.0,46,0.00,,,0.00,0,Wunderground v.1.15,2013-05-07 09:45:00,
2013-05-07 03:50:00,51.2,30.6,29.61,WSW,240,5.0,5.0,45,0.00,,,0.00,0,Wunderground v.1.15,2013-05-07 09:50:00,
2013-05-07 03:55:00,51.7,31.0,29.61,SW,229,4.0,5.0,45,0.00,,,0.00,0,Wunderground v.1.15,2013-05-07 09:55:00,
2013-05-07 04:05:00,52.0,30.7,29.61,West,262,4.0,4.0,44,0.00,,,0.00,0,Wunderground v.1.15,2013-05-07 10:05:00,
2013-05-07 04:15:00,51.5,30.8,29.61,SW,224,2.0,2.0,45,0.00,,,0.00,0,Wunderground v.1.15,2013-05-07 10:15:00,
2013-05-07 04:25:00,51.6,30.9,29.61,SW,226,3.0,5.0,45,0.00,,,0.00,0,Wunderground v.1.15,2013-05-07 10:25:00,
2013-05-07 04:30:00,51.7,31.0,29.61,South,189,3.0,6.0,45,0.00,,,0.00,0,Wunderground v.1.15,2013-05-07 10:30:00,
2013-05-07 04:40:00,51.8,31.1,29.61,SW,228,4.0,4.0,45,0.00,,,0.00,0,Wunderground v.1.15,2013-05-07 10:40:00,
2013-05-07 04:45:00,51.7,31.0,29.61,SW,236,4.0,4.0,45,0.00,,,0.00,0,Wunderground v.1.15,2013-05-07 10:45:00,
2013-05-07 04:55:00,51.7,31.0,29.61,SSW,211,4.0,4.0,45,0.00,,,0.00,0,Wunderground v.1.15,2013-05-07 10:55:00,
2013-05-07 05:05:00,51.6,30.9,29.61,WSW,237,3.0,4.0,45,0.00,,,0.00,0,Wunderground v.1.15,2013-05-07 11:05:00,
2013-05-07 05:15:00,51.6,30.9,29.61,SW,232,4.0,4.0,45,0.00,,,0.00,0,Wunderground v.1.15,2013-05-07 11:15:00,
2013-05-07 05:20:00,51.4,31.3,29.60,SW,236,3.0,3.0,46,0.00,,,0.00,0,Wunderground v.1.15,2013-05-07 11:20:00,
2013-05-07 05:25:00,51.1,31.0,29.60,SSW,202,3.0,3.0,46,0.00,,,0.00,0,Wunderground v.1.15,2013-05-07 11:25:00,
2013-05-07 05:30:00,51.1,31.0,29.60,WSW,252,3.0,7.0,46,0.00,,,0.00,0,Wunderground v.1.15,2013-05-07 11:30:00,
2013-05-07 05:40:00,51.3,31.2,29.60,SSE,152,3.0,3.0,46,0.00,,,0.00,0,Wunderground v.1.15,2013-05-07 11:40:00,
2013-05-07 05:50:00,51.4,30.7,29.60,SSW,206,5.0,5.0,45,0.00,,,0.00,0,Wunderground v.1.15,2013-05-07 11:50:00,
2013-05-07 05:55:00,51.6,30.9,29.60,SW,236,5.0,7.0,45,0.00,,,0.00,0,Wunderground v.1.15,2013-05-07 11:55:00,
2013-05-07 06:00:00,51.9,31.2,29.60,WSW,241,5.0,7.0,45,0.00,,,0.00,5,Wunderground v.1.15,2013-05-07 12:00:00,
2013-05-07 06:10:00,51.4,30.7,29.60,SW,226,4.0,4.0,45,0.00,,,0.00,9,Wunderground v.1.15,2013-05-07 12:10:00,
2013-05-07 06:15:00,51.3,31.2,29.60,WSW,246,3.0,4.0,46,0.00,,,0.00,11,Wunderground v.1.15,2013-05-07 12:15:00,
2013-05-07 06:20:00,51.2,31.1,29.60,SW,233,3.0,3.0,46,0.00,,,0.00,12,Wunderground v.1.15,2013-05-07 12:20:00,
2013-05-07 06:25:00,51.0,30.9,29.60,SW,233,2.0,3.0,46,0.00,,,0.00,14,Wunderground v.1.15,2013-05-07 12:25:00,
2013-05-07 06:35:00,51.3,31.7,29.60,WSW,239,2.0,2.0,47,0.00,,,0.00,18,Wunderground v.1.15,2013-05-07 12:35:00,
2013-05-07 06:40:00,51.2,32.2,29.60,WSW,245,2.0,2.0,48,0.00,,,0.00,19,Wunderground v.1.15,2013-05-07 12:40:00,
2013-05-07 06:50:00,50.8,32.3,29.60,WSW,246,1.0,2.0,49,0.00,,,0.00,23,Wunderground v.1.15,2013-05-07 12:50:00,
2013-05-07 06:55:00,50.4,31.9,29.60,WSW,251,2.0,2.0,49,0.00,,,0.00,25,Wunderground v.1.15,2013-05-07 12:55:00,
2013-05-07 07:00:00,50.3,32.4,29.60,WSW,251,1.0,1.0,50,0.00,,,0.00,25,Wunderground v.1.15,2013-05-07 13:00:00,
2013-05-07 07:05:00,50.3,32.4,29.60,WSW,251,0.0,1.0,50,0.00,,,0.00,26,Wunderground v.1.15,2013-05-07 13:05:00,
2013-05-07 07:15:00,50.9,31.4,29.60,SSE,151,2.0,2.0,47,0.00,,,0.00,28,Wunderground v.1.15,2013-05-07 13:15:00,
2013-05-07 07:20:00,51.8,32.2,29.60,SE,138,3.0,3.0,47,0.00,,,0.00,30,Wunderground v.1.15,2013-05-07 13:20:00,
2013-05-07 07:25:00,52.6,32.4,29.60,SE,143,3.0,4.0,46,0.00,,,0.00,30,Wunderground v.1.15,2013-05-07 13:25:00,
2013-05-07 07:30:00,53.3,31.9,29.60,SSW,195,3.0,4.0,44,0.00,,,0.00,32,Wunderground v.1.15,2013-05-07 13:30:00,
2013-05-07 07:35:00,53.7,32.3,29.60,SSW,195,4.0,6.0,44,0.00,,,0.00,32,Wunderground v.1.15,2013-05-07 13:35:00,
2013-05-07 07:40:00,54.1,32.1,29.60,SSW,192,5.0,5.0,43,0.00,,,0.00,33,Wunderground v.1.15,2013-05-07 13:40:00,
2013-05-07 07:45:00,54.4,31.8,29.60,SSE,158,7.0,7.0,42,0.00,,,0.00,35,Wunderground v.1.15,2013-05-07 13:45:00,
2013-05-07 07:50:00,54.6,31.9,29.60,SE,126,7.0,7.0,42,0.00,,,0.00,35,Wunderground v.1.15,2013-05-07 13:50:00,
2013-05-07 08:00:00,54.9,32.2,29.60,ESE,122,6.0,6.0,42,0.00,,,0.00,37,Wunderground v.1.15,2013-05-07 14:00:00,
2013-05-07 08:05:00,55.1,35.2,29.60,ENE,74,5.0,6.0,47,0.00,,,0.00,39,Wunderground v.1.15,2013-05-07 14:05:00,
2013-05-07 08:10:00,54.6,35.3,29.60,ENE,68,4.0,4.0,48,0.00,,,0.00,39,Wunderground v.1.15,2013-05-07 14:10:00,
2013-05-07 08:15:00,54.4,34.6,29.59,ENE,71,3.0,4.0,47,0.00,,,0.00,40,Wunderground v.1.15,2013-05-07 14:15:00,
2013-05-07 08:20:00,54.2,33.9,29.59,South,189,1.0,4.0,46,0.00,,,0.00,44,Wunderground v.1.15,2013-05-07 14:20:00,
2013-05-07 08:25:00,54.3,33.9,29.59,SSE,147,1.0,4.0,46,0.00,,,0.00,406,Wunderground v.1.15,2013-05-07 14:25:00,
2013-05-07 08:30:00,54.6,34.2,29.59,East,82,2.0,3.0,46,0.00,,,0.00,424,Wunderground v.1.15,2013-05-07 14:30:00,
2013-05-07 08:40:00,55.8,34.8,29.59,SE,138,3.0,3.0,45,0.00,,,0.00,455,Wunderground v.1.15,2013-05-07 14:40:00,
2013-05-07 08:45:00,56.4,34.2,29.59,SE,142,2.0,3.0,43,0.00,,,0.00,471,Wunderground v.1.15,2013-05-07 14:45:00,
2013-05-07 08:50:00,56.9,35.8,29.59,East,84,2.0,3.0,45,0.00,,,0.00,489,Wunderground v.1.15,2013-05-07 14:50:00,
2013-05-07 09:00:00,57.7,34.7,29.59,East,84,2.0,3.0,42,0.00,,,0.00,533,Wunderground v.1.15,2013-05-07 15:00:00,
2013-05-07 09:10:00,59.0,35.9,29.59,NE,51,2.0,2.0,42,0.00,,,0.00,575,Wunderground v.1.15,2013-05-07 15:10:00,
2013-05-07 09:15:00,59.1,35.4,29.59,NE,53,2.0,2.0,41,0.00,,,0.00,592,Wunderground v.1.15,2013-05-07 15:15:00,
2013-05-07 09:25:00,59.7,36.6,29.59,ENE,62,3.0,3.0,42,0.00,,,0.00,631,Wunderground v.1.15,2013-05-07 15:25:00,
2013-05-07 09:35:00,60.8,35.0,29.59,ENE,64,2.0,2.0,38,0.00,,,0.00,659,Wunderground v.1.15,2013-05-07 15:35:00,
2013-05-07 09:40:00,61.2,35.4,29.58,ENE,65,2.0,2.0,38,0.00,,,0.00,668,Wunderground v.1.15,2013-05-07 15:40:00,
2013-05-07 09:50:00,62.0,34.7,29.58,East,88,2.0,2.0,36,0.00,,,0.00,687,Wunderground v.1.15,2013-05-07 15:50:00,
2013-05-07 09:55:00,62.1,34.8,29.58,East,81,3.0,3.0,36,0.00,,,0.00,701,Wunderground v.1.15,2013-05-07 15:55:00,
2013-05-07 10:00:00,62.5,35.2,29.58,East,79,2.0,2.0,36,0.00,,,0.00,710,Wunderground v.1.15,2013-05-07 16:00:00,
2013-05-07 10:05:00,62.9,36.2,29.58,ENE,75,1.0,2.0,37,0.00,,,0.00,724,Wunderground v.1.15,2013-05-07 16:05:00,
2013-05-07 10:10:00,63.4,38.0,29.57,East,84,2.0,2.0,39,0.00,,,0.00,740,Wunderground v.1.15,2013-05-07 16:10:00,
2013-05-07 10:20:00,64.3,37.5,29.58,NE,56,2.0,2.0,37,0.00,,,0.00,768,Wunderground v.1.15,2013-05-07 16:20:00,
2013-05-07 10:25:00,64.8,38.6,29.58,NE,54,1.0,2.0,38,0.00,,,0.00,772,Wunderground v.1.15,2013-05-07 16:25:00,
2013-05-07 10:30:00,65.4,38.4,29.57,ENE,67,2.0,2.0,37,0.00,,,0.00,793,Wunderground v.1.15,2013-05-07 16:30:00,
2013-05-07 10:40:00,66.5,38.0,29.57,ENE,74,2.0,2.0,35,0.00,,,0.00,828,Wunderground v.1.15,2013-05-07 16:40:00,
2013-05-07 10:45:00,67.2,37.9,29.57,East,85,1.0,3.0,34,0.00,,,0.00,863,Wunderground v.1.15,2013-05-07 16:45:00,
2013-05-07 10:50:00,67.7,38.3,29.57,East,95,2.0,2.0,34,0.00,,,0.00,882,Wunderground v.1.15,2013-05-07 16:50:00,
2013-05-07 10:55:00,68.4,37.4,29.57,NE,37,3.0,3.0,32,0.00,,,0.00,896,Wunderground v.1.15,2013-05-07 16:55:00,
2013-05-07 11:00:00,69.0,37.9,29.58,ENE,72,2.0,2.0,32,0.00,,,0.00,912,Wunderground v.1.15,2013-05-07 17:00:00,
2013-05-07 11:10:00,69.7,36.0,29.57,NE,52,3.0,3.0,29,0.00,,,0.00,925,Wunderground v.1.15,2013-05-07 17:10:00,
2013-05-07 11:15:00,70.3,36.5,29.57,ESE,104,3.0,3.0,29,0.00,,,0.00,912,Wunderground v.1.15,2013-05-07 17:15:00,
2013-05-07 11:25:00,71.1,37.2,29.57,NNE,26,4.0,4.0,29,0.00,,,0.00,918,Wunderground v.1.15,2013-05-07 17:25:00,
2013-05-07 11:30:00,71.1,37.2,29.57,ENE,67,3.0,5.0,29,0.00,,,0.00,926,Wunderground v.1.15,2013-05-07 17:30:00,
2013-05-07 11:40:00,71.9,37.9,29.57,East,87,5.0,5.0,29,0.00,,,0.00,963,Wunderground v.1.15,2013-05-07 17:40:00,
2013-05-07 11:50:00,71.8,37.8,29.56,ESE,102,3.0,6.0,29,0.00,,,0.00,944,Wunderground v.1.15,2013-05-07 17:50:00,
2013-05-07 11:55:00,71.7,37.7,29.56,East,95,5.0,6.0,29,0.00,,,0.00,953,Wunderground v.1.15,2013-05-07 17:55:00,
2013-05-07 12:00:00,71.5,34.8,29.56,East,85,5.0,5.0,26,0.00,,,0.00,969,Wunderground v.1.15,2013-05-07 18:00:00,
2013-05-07 12:05:00,71.0,37.1,29.56,East,86,5.0,5.0,29,0.00,,,0.00,984,Wunderground v.1.15,2013-05-07 18:05:00,
2013-05-07 12:15:00,72.3,35.5,29.56,ENE,71,3.0,4.0,26,0.00,,,0.00,970,Wunderground v.1.15,2013-05-07 18:15:00,
2013-05-07 12:20:00,73.1,38.0,29.56,East,86,4.0,4.0,28,0.00,,,0.00,976,Wunderground v.1.15,2013-05-07 18:20:00,
2013-05-07 12:25:00,72.6,35.7,29.55,ESE,119,4.0,4.0,26,0.00,,,0.00,976,Wunderground v.1.15,2013-05-07 18:25:00,
2013-05-07 12:35:00,73.1,36.2,29.56,East,97,4.0,6.0,26,0.00,,,0.00,976,Wunderground v.1.15,2013-05-07 18:35:00,
2013-05-07 12:45:00,73.9,35.8,29.55,ENE,74,5.0,7.0,25,0.00,,,0.00,1013,Wunderground v.1.15,2013-05-07 18:45:00,
2013-05-07 12:50:00,73.4,35.4,29.55,ESE,106,5.0,5.0,25,0.00,,,0.00,1014,Wunderground v.1.15,2013-05-07 18:50:00,
2013-05-07 12:55:00,73.6,36.6,29.55,East,99,4.0,5.0,26,0.00,,,0.00,990,Wunderground v.1.15,2013-05-07 18:55:00,
2013-05-07 13:00:00,73.9,34.8,29.55,North,355,4.0,4.0,24,0.00,,,0.00,1005,Wunderground v.1.15,2013-05-07 19:00:00,
2013-05-07 13:10:00,73.7,37.6,29.55,East,101,3.0,3.0,27,0.00,,,0.00,1018,Wunderground v.1.15,2013-05-07 19:10:00,
2013-05-07 13:15:00,74.8,36.6,29.54,NNW,334,4.0,7.0,25,0.00,,,0.00,997,Wunderground v.1.15,2013-05-07 19:15:00,
2013-05-07 13:20:00,74.6,36.4,29.55,East,92,4.0,4.0,25,0.00,,,0.00,995,Wunderground v.1.15,2013-05-07 19:20:00,
2013-05-07 13:25:00,74.5,37.3,29.54,East,90,3.0,6.0,26,0.00,,,0.00,1002,Wunderground v.1.15,2013-05-07 19:25:00,
2013-05-07 13:30:00,75.1,36.9,29.55,ENE,74,3.0,4.0,25,0.00,,,0.00,1013,Wunderground v.1.15,2013-05-07 19:30:00,
2013-05-07 13:35:00,74.9,35.7,29.54,ESE,108,4.0,4.0,24,0.00,,,0.00,1037,Wunderground v.1.15,2013-05-07 19:35:00,
2013-05-07 13:40:00,75.1,36.9,29.54,ESE,109,5.0,5.0,25,0.00,,,0.00,1062,Wunderground v.1.15,2013-05-07 19:40:00,
2013-05-07 13:45:00,75.8,35.3,29.54,East,85,4.0,5.0,23,0.00,,,0.00,1067,Wunderground v.1.15,2013-05-07 19:45:00,
2013-05-07 13:55:00,76.1,35.6,29.54,East,82,4.0,4.0,23,0.00,,,0.00,1065,Wunderground v.1.15,2013-05-07 19:55:00,
2013-05-07 14:00:00,75.9,38.5,29.54,East,93,4.0,5.0,26,0.00,,,0.00,1090,Wunderground v.1.15,2013-05-07 20:00:00,
2013-05-07 14:10:00,73.3,36.3,29.54,East,91,5.0,5.0,26,0.00,,,0.00,1127,Wunderground v.1.15,2013-05-07 20:10:00,
2013-05-07 14:20:00,73.7,34.6,29.54,ESE,106,5.0,5.0,24,0.00,,,0.00,309,Wunderground v.1.15,2013-05-07 20:20:00,
2013-05-07 14:25:00,72.9,36.0,29.54,ESE,111,4.0,5.0,26,0.00,,,0.00,199,Wunderground v.1.15,2013-05-07 20:25:00,
2013-05-07 14:30:00,71.5,34.8,29.54,NNE,22,3.0,3.0,26,0.00,,,0.00,186,Wunderground v.1.15,2013-05-07 20:30:00,
2013-05-07 14:35:00,70.7,32.1,29.54,NNW,343,2.0,3.0,24,0.00,,,0.00,185,Wunderground v.1.15,2013-05-07 20:35:00,
2013-05-07 14:40:00,70.3,33.8,29.54,NE,47,1.0,1.0,26,0.00,,,0.00,216,Wunderground v.1.15,2013-05-07 20:40:00,
2013-05-07 14:50:00,70.1,34.5,29.54,NNW,337,2.0,2.0,27,0.00,,,0.00,1016,Wunderground v.1.15,2013-05-07 20:50:00,
2013-05-07 14:55:00,71.4,33.7,29.54,East,94,2.0,3.0,25,0.00,,,0.00,1035,Wunderground v.1.15,2013-05-07 20:55:00,
2013-05-07 15:00:00,72.6,34.7,29.54,East,81,3.0,4.0,25,0.00,,,0.00,234,Wunderground v.1.15,2013-05-07 21:00:00,
2013-05-07 15:10:00,72.2,32.3,29.54,NE,52,2.0,2.0,23,0.00,,,0.00,239,Wunderground v.1.15,2013-05-07 21:10:00,
2013-05-07 15:20:00,72.8,35.9,29.54,ESE,120,2.0,3.0,26,0.00,,,0.00,972,Wunderground v.1.15,2013-05-07 21:20:00,
2013-05-07 15:30:00,73.8,34.7,29.54,NE,47,5.0,5.0,24,0.00,,,0.00,174,Wunderground v.1.15,2013-05-07 21:30:00,
2013-05-07 15:35:00,72.0,33.2,29.54,ENE,61,3.0,5.0,24,0.00,,,0.00,202,Wunderground v.1.15,2013-05-07 21:35:00,
2013-05-07 15:40:00,71.8,34.1,29.54,ENE,76,2.0,2.0,25,0.00,,,0.00,918,Wunderground v.1.15,2013-05-07 21:40:00,
2013-05-07 15:45:00,73.1,34.1,29.54,East,89,2.0,7.0,24,0.00,,,0.00,181,Wunderground v.1.15,2013-05-07 21:45:00,
2013-05-07 15:55:00,74.2,34.0,29.54,ENE,78,3.0,3.0,23,0.00,,,0.00,898,Wunderground v.1.15,2013-05-07 21:55:00,
2013-05-07 16:00:00,75.2,34.8,29.53,East,98,2.0,6.0,23,0.00,,,0.00,935,Wunderground v.1.15,2013-05-07 22:00:00,
2013-05-07 16:05:00,75.5,34.0,29.54,West,264,2.0,6.0,22,0.00,,,0.00,195,Wunderground v.1.15,2013-05-07 22:05:00,
2013-05-07 16:15:00,73.4,33.3,29.54,North,5,2.0,3.0,23,0.00,,,0.00,158,Wunderground v.1.15,2013-05-07 22:15:00,
2013-05-07 16:20:00,73.1,34.1,29.54,ENE,59,1.0,2.0,24,0.00,,,0.00,740,Wunderground v.1.15,2013-05-07 22:20:00,
2013-05-07 16:30:00,73.9,31.5,29.53,ESE,105,2.0,6.0,21,0.00,,,0.00,756,Wunderground v.1.15,2013-05-07 22:30:00,
2013-05-07 16:35:00,74.3,34.1,29.53,ESE,108,2.0,6.0,23,0.00,,,0.00,791,Wunderground v.1.15,2013-05-07 22:35:00,
2013-05-07 16:40:00,74.7,33.3,29.53,SSE,152,3.0,3.0,22,0.00,,,0.00,265,Wunderground v.1.15,2013-05-07 22:40:00,
2013-05-07 16:50:00,74.4,35.2,29.53,SE,131,3.0,3.0,24,0.00,,,0.00,793,Wunderground v.1.15,2013-05-07 22:50:00,
2013-05-07 16:55:00,74.6,35.4,29.53,ESE,108,3.0,6.0,24,0.00,,,0.00,749,Wunderground v.1.15,2013-05-07 22:55:00,
2013-05-07 17:05:00,74.4,34.2,29.54,ENE,64,4.0,4.0,23,0.00,,,0.00,531,Wunderground v.1.15,2013-05-07 23:05:00,
2013-05-07 17:10:00,73.8,34.7,29.54,East,92,2.0,3.0,24,0.00,,,0.00,107,Wunderground v.1.15,2013-05-07 23:10:00,
2013-05-07 17:20:00,72.0,34.2,29.54,NNW,335,2.0,2.0,25,0.00,,,0.00,130,Wunderground v.1.15,2013-05-07 23:20:00,
2013-05-07 17:25:00,71.1,32.5,29.54,NW,323,2.0,4.0,24,0.00,,,0.00,163,Wunderground v.1.15,2013-05-07 23:25:00,
2013-05-07 17:30:00,71.0,34.4,29.54,NW,316,2.0,2.0,26,0.00,,,0.00,276,Wunderground v.1.15,2013-05-07 23:30:00,
2013-05-07 17:40:00,71.1,34.5,29.55,SW,218,2.0,4.0,26,0.00,,,0.00,155,Wunderground v.1.15,2013-05-07 23:40:00,
2013-05-07 17:50:00,68.5,34.1,29.55,SSW,204,3.0,3.0,28,0.00,,,0.00,146,Wunderground v.1.15,2013-05-07 23:50:00,
2013-05-07 18:00:00,68.1,34.6,29.56,West,280,3.0,3.0,29,0.00,,,0.00,151,Wunderground v.1.15,2013-05-08 00:00:00,
2013-05-07 18:05:00,67.8,33.5,29.56,East,79,3.0,3.0,28,0.00,,,0.00,102,Wunderground v.1.15,2013-05-08 00:05:00,
2013-05-07 18:10:00,67.7,35.1,29.56,East,80,2.0,2.0,30,0.00,,,0.00,77,Wunderground v.1.15,2013-05-08 00:10:00,
2013-05-07 18:15:00,67.5,34.1,29.56,SSW,199,1.0,2.0,29,0.00,,,0.00,42,Wunderground v.1.15,2013-05-08 00:15:00,
2013-05-07 18:20:00,67.2,34.7,29.57,NW,317,2.0,4.0,30,0.00,,,0.00,35,Wunderground v.1.15,2013-05-08 00:20:00,
2013-05-07 18:25:00,66.8,34.3,29.57,NW,324,3.0,4.0,30,0.00,,,0.00,39,Wunderground v.1.15,2013-05-08 00:25:00,
2013-05-07 18:30:00,66.6,35.0,29.58,NW,311,2.0,2.0,31,0.00,,,0.00,35,Wunderground v.1.15,2013-05-08 00:30:00,
2013-05-07 18:35:00,66.3,34.7,29.58,NW,313,2.0,2.0,31,0.00,,,0.00,33,Wunderground v.1.15,2013-05-08 00:35:00,
2013-05-07 18:40:00,65.4,33.1,29.58,SSW,203,2.0,5.0,30,0.00,,,0.00,28,Wunderground v.1.15,2013-05-08 00:40:00,
2013-05-07 18:45:00,64.5,34.7,29.58,West,281,5.0,13.0,33,0.00,,,0.00,25,Wunderground v.1.15,2013-05-08 00:45:00,
2013-05-07 18:55:00,63.3,34.4,29.58,WNW,287,11.0,13.0,34,0.00,,,0.00,18,Wunderground v.1.15,2013-05-08 00:55:00,
2013-05-07 19:00:00,63.0,34.9,29.59,West,277,11.0,11.0,35,0.00,,,0.00,14,Wunderground v.1.15,2013-05-08 01:00:00,
2013-05-07 19:05:00,62.9,35.5,29.59,WNW,290,11.0,11.0,36,0.00,,,0.00,14,Wunderground v.1.15,2013-05-08 01:05:00,
2013-05-07 19:15:00,62.0,35.4,29.59,West,264,11.0,16.0,37,0.00,,,0.00,12,Wunderground v.1.15,2013-05-08 01:15:00,
2013-05-07 19:20:00,61.6,36.4,29.59,WNW,298,16.0,21.0,39,0.00,,,0.00,9,Wunderground v.1.15,2013-05-08 01:20:00,
2013-05-07 19:25:00,61.4,36.2,29.60,WNW,285,16.0,21.0,39,0.00,,,0.00,7,Wunderground v.1.15,2013-05-08 01:25:00,
2013-05-07 19:30:00,61.0,36.5,29.60,West,274,14.0,14.0,40,0.00,,,0.00,7,Wunderground v.1.15,2013-05-08 01:30:00,
2013-05-07 19:35:00,60.6,37.4,29.61,NW,308,13.0,14.0,42,0.00,,,0.00,7,Wunderground v.1.15,2013-05-08 01:35:00,
2013-05-07 19:40:00,59.8,37.2,29.61,West,277,14.0,20.0,43,0.00,,,0.00,5,Wunderground v.1.15,2013-05-08 01:40:00,
2013-05-07 19:50:00,59.8,36.6,29.61,SW,218,13.0,13.0,42,0.00,,,0.00,5,Wunderground v.1.15,2013-05-08 01:50:00,
2013-05-07 19:55:00,59.9,36.1,29.62,West,274,9.0,13.0,41,0.00,,,0.00,5,Wunderground v.1.15,2013-05-08 01:55:00,
2013-05-07 20:00:00,60.0,36.2,29.62,WSW,252,6.0,6.0,41,0.00,,,0.00,7,Wunderground v.1.15,2013-05-08 02:00:00,
2013-05-07 20:10:00,60.0,37.4,29.62,South,180,6.0,9.0,43,0.00,,,0.00,0,Wunderground v.1.15,2013-05-08 02:10:00,
2013-05-07 20:15:00,59.5,37.0,29.62,SSE,154,6.0,9.0,43,0.00,,,0.00,0,Wunderground v.1.15,2013-05-08 02:15:00,
2013-05-07 20:20:00,59.4,36.9,29.62,SSW,199,6.0,6.0,43,0.00,,,0.00,0,Wunderground v.1.15,2013-05-08 02:20:00,
2013-05-07 20:25:00,59.3,37.4,29.63,SE,142,5.0,7.0,44,0.00,,,0.00,0,Wunderground v.1.15,2013-05-08 02:25:00,
2013-05-07 20:30:00,59.0,37.7,29.63,SSE,161,6.0,8.0,45,0.00,,,0.00,0,Wunderground v.1.15,2013-05-08 02:30:00,
2013-05-07 20:35:00,58.7,38.0,29.63,SE,145,8.0,8.0,46,0.00,,,0.00,0,Wunderground v.1.15,2013-05-08 02:35:00,
2013-05-07 20:40:00,58.3,38.1,29.63,South,175,8.0,14.0,47,0.00,,,0.00,0,Wunderground v.1.15,2013-05-08 02:40:00,
2013-05-07 20:45:00,58.1,38.0,29.64,SSE,161,9.0,14.0,47,0.00,,,0.00,0,Wunderground v.1.15,2013-05-08 02:45:00,
2013-05-07 20:50:00,58.0,37.9,29.64,South,191,10.0,13.0,47,0.00,,,0.00,0,Wunderground v.1.15,2013-05-08 02:50:00,
2013-05-07 20:55:00,57.8,38.2,29.64,South,175,9.0,13.0,48,0.00,,,0.00,0,Wunderground v.1.15,2013-05-08 02:55:00,
2013-05-07 21:00:00,57.6,38.0,29.64,SSE,164,8.0,9.0,48,0.00,,,0.00,0,Wunderground v.1.15,2013-05-08 03:00:00,
2013-05-07 21:10:00,57.3,38.8,29.65,South,180,9.0,9.0,50,0.00,,,0.00,0,Wunderground v.1.15,2013-05-08 03:10:00,
2013-05-07 21:20:00,56.9,38.9,29.65,SSE,150,9.0,11.0,51,0.00,,,0.00,0,Wunderground v.1.15,2013-05-08 03:20:00,
2013-05-07 21:25:00,56.8,38.9,29.66,SSE,151,8.0,11.0,51,0.00,,,0.00,0,Wunderground v.1.15,2013-05-08 03:25:00,
2013-05-07 21:35:00,56.6,38.7,29.66,South,185,8.0,8.0,51,0.00,,,0.00,0,Wunderground v.1.15,2013-05-08 03:35:00,
2013-05-07 21:40:00,56.5,39.1,29.66,SSE,149,7.0,7.0,52,0.00,,,0.00,0,Wunderground v.1.15,2013-05-08 03:40:00,
2013-05-07 21:45:00,56.4,39.0,29.66,SSE,162,7.0,7.0,52,0.00,,,0.00,0,Wunderground v.1.15,2013-05-08 03:45:00,
2013-05-07 21:50:00,56.3,38.9,29.66,South,185,7.0,7.0,52,0.00,,,0.00,0,Wunderground v.1.15,2013-05-08 03:50:00,
2013-05-07 21:55:00,56.3,38.9,29.66,SSW,201,7.0,7.0,52,0.00,,,0.00,0,Wunderground v.1.15,2013-05-08 03:55:00,
2013-05-07 22:00:00,56.3,38.9,29.67,SSE,151,5.0,5.0,52,0.00,,,0.00,0,Wunderground v.1.15,2013-05-08 04:00:00,
2013-05-07 22:05:00,56.2,39.8,29.67,SE,140,4.0,7.0,54,0.00,,,0.00,0,Wunderground v.1.15,2013-05-08 04:05:00,
2013-05-07 22:10:00,55.8,39.9,29.67,SSE,162,6.0,6.0,55,0.00,,,0.00,0,Wunderground v.1.15,2013-05-08 04:10:00,
2013-05-07 22:20:00,55.7,39.3,29.67,SSE,151,6.0,6.0,54,0.00,,,0.00,0,Wunderground v.1.15,2013-05-08 04:20:00,
2013-05-07 22:25:00,55.8,38.4,29.67,West,264,4.0,6.0,52,0.00,,,0.00,0,Wunderground v.1.15,2013-05-08 04:25:00,
2013-05-07 22:30:00,55.9,39.5,29.67,South,175,4.0,6.0,54,0.00,,,0.00,0,Wunderground v.1.15,2013-05-08 04:30:00,
2013-05-07 22:35:00,55.7,39.3,29.67,SW,220,5.0,6.0,54,0.00,,,0.00,0,Wunderground v.1.15,2013-05-08 04:35:00,
2013-05-07 22:40:00,55.6,39.7,29.67,SSW,209,4.0,4.0,55,0.00,,,0.00,0,Wunderground v.1.15,2013-05-08 04:40:00,
2013-05-07 22:50:00,55.3,39.9,29.68,South,169,4.0,4.0,56,0.00,,,0.00,0,Wunderground v.1.15,2013-05-08 04:50:00,
2013-05-07 22:55:00,55.2,39.3,29.67,South,185,4.0,4.0,55,0.00,,,0.00,0,Wunderground v.1.15,2013-05-08 04:55:00,
2013-05-07 23:00:00,55.3,38.4,29.67,SW,226,3.0,3.0,53,0.00,,,0.00,0,Wunderground v.1.15,2013-05-08 05:00:00,
2013-05-07 23:10:00,55.2,39.3,29.68,SW,218,4.0,5.0,55,0.00,,,0.00,0,Wunderground v.1.15,2013-05-08 05:10:00,
2013-05-07 23:15:00,55.2,39.3,29.69,SSE,166,4.0,5.0,55,0.00,,,0.00,0,Wunderground v.1.15,2013-05-08 05:15:00,
2013-05-07 23:20:00,55.3,38.4,29.69,South,175,3.0,4.0,53,0.00,,,0.00,0,Wunderground v.1.15,2013-05-08 05:20:00,
2013-05-07 23:25:00,55.5,39.6,29.70,WNW,289,2.0,4.0,55,0.00,,,0.00,0,Wunderground v.1.15,2013-05-08 05:25:00,
2013-05-07 23:30:00,55.4,40.0,29.70,WNW,289,3.0,3.0,56,0.00,,,0.00,0,Wunderground v.1.15,2013-05-08 05:30:00,
2013-05-07 23:35:00,55.2,40.2,29.70,WNW,291,2.0,3.0,57,0.00,,,0.00,0,Wunderground v.1.15,2013-05-08 05:35:00,
2013-05-07 23:40:00,55.0,40.5,29.70,WNW,291,2.0,2.0,58,0.00,,,0.00,0,Wunderground v.1.15,2013-05-08 05:40:00,
2013-05-07 23:50:00,54.1,40.9,29.71,WNW,294,1.0,2.0,61,0.00,,,0.00,0,Wunderground v.1.15,2013-05-08 05:50:00,
2013-05-07 23:55:00,53.8,41.5,29.71,WNW,294,1.0,2.0,63,0.00,,,0.00,0,Wunderground v.1.15,2013-05-08 05:55:00,